sensor_id;sensor_type;location;lat;lon;timestamp;temperature;humidity
70079;DHT22;57451;52.496;13.456;2023-07-13T00:00:36;21.60;51.10
70079;DHT22;57451;52.496;13.456;2023-07-13T00:03:05;21.50;51.20
70079;DHT22;57451;52.496;13.456;2023-07-13T00:05:32;21.50;51.60
70079;DHT22;57451;52.496;13.456;2023-07-13T00:08:00;21.50;51.50
70079;DHT22;57451;52.496;13.456;2023-07-13T00:10:27;21.50;51.50
70079;DHT22;57451;52.496;13.456;2023-07-13T00:12:54;21.50;51.30
70079;DHT22;57451;52.496;13.456;2023-07-13T00:15:25;21.40;51.90
70079;DHT22;57451;52.496;13.456;2023-07-13T00:17:54;21.40;51.50
70079;DHT22;57451;52.496;13.456;2023-07-13T00:20:24;21.40;51.10
70079;DHT22;57451;52.496;13.456;2023-07-13T00:22:53;21.40;51.30
70079;DHT22;57451;52.496;13.456;2023-07-13T00:25:21;21.40;51.60
70079;DHT22;57451;52.496;13.456;2023-07-13T00:27:48;21.40;51.80
70079;DHT22;57451;52.496;13.456;2023-07-13T00:30:16;21.40;51.70
70079;DHT22;57451;52.496;13.456;2023-07-13T00:32:44;21.40;51.50
70079;DHT22;57451;52.496;13.456;2023-07-13T00:35:14;21.30;52.00
70079;DHT22;57451;52.496;13.456;2023-07-13T00:37:43;21.30;51.40
70079;DHT22;57451;52.496;13.456;2023-07-13T00:40:11;21.30;51.70
70079;DHT22;57451;52.496;13.456;2023-07-13T00:42:39;21.20;51.40
70079;DHT22;57451;52.496;13.456;2023-07-13T00:47:50;21.20;51.80
70079;DHT22;57451;52.496;13.456;2023-07-13T00:50:18;21.20;52.00
70079;DHT22;57451;52.496;13.456;2023-07-13T00:52:50;21.20;51.30
70079;DHT22;57451;52.496;13.456;2023-07-13T00:55:20;21.10;51.60
70079;DHT22;57451;52.496;13.456;2023-07-13T00:57:48;21.10;51.80
70079;DHT22;57451;52.496;13.456;2023-07-13T01:00:16;21.10;51.60
70079;DHT22;57451;52.496;13.456;2023-07-13T01:02:45;21.10;51.60
70079;DHT22;57451;52.496;13.456;2023-07-13T01:05:16;21.00;52.00
70079;DHT22;57451;52.496;13.456;2023-07-13T01:07:44;21.00;51.70
70079;DHT22;57451;52.496;13.456;2023-07-13T01:10:13;21.00;51.50
70079;DHT22;57451;52.496;13.456;2023-07-13T01:12:41;20.90;51.60
70079;DHT22;57451;52.496;13.456;2023-07-13T01:15:36;20.90;51.60
70079;DHT22;57451;52.496;13.456;2023-07-13T01:18:04;20.80;51.70
70079;DHT22;57451;52.496;13.456;2023-07-13T01:20:32;20.80;51.60
70079;DHT22;57451;52.496;13.456;2023-07-13T01:23:08;20.80;52.50
70079;DHT22;57451;52.496;13.456;2023-07-13T01:25:37;20.80;52.70
70079;DHT22;57451;52.496;13.456;2023-07-13T01:28:06;20.70;52.50
70079;DHT22;57451;52.496;13.456;2023-07-13T01:30:38;20.70;52.00
70079;DHT22;57451;52.496;13.456;2023-07-13T01:33:07;20.60;52.70
70079;DHT22;57451;52.496;13.456;2023-07-13T01:35:35;20.60;52.00
70079;DHT22;57451;52.496;13.456;2023-07-13T01:38:06;20.50;52.10
70079;DHT22;57451;52.496;13.456;2023-07-13T01:40:36;20.50;52.30
70079;DHT22;57451;52.496;13.456;2023-07-13T01:43:04;20.50;52.10
70079;DHT22;57451;52.496;13.456;2023-07-13T01:45:32;20.40;52.40
70079;DHT22;57451;52.496;13.456;2023-07-13T01:47:59;20.40;52.50
70079;DHT22;57451;52.496;13.456;2023-07-13T01:50:27;20.40;53.40
70079;DHT22;57451;52.496;13.456;2023-07-13T01:52:54;20.40;53.60
70079;DHT22;57451;52.496;13.456;2023-07-13T01:55:23;20.30;53.60
70079;DHT22;57451;52.496;13.456;2023-07-13T01:57:50;20.30;54.00
70079;DHT22;57451;52.496;13.456;2023-07-13T02:00:18;20.20;53.00
70079;DHT22;57451;52.496;13.456;2023-07-13T02:02:48;20.20;53.40
70079;DHT22;57451;52.496;13.456;2023-07-13T02:05:15;20.20;54.60
70079;DHT22;57451;52.496;13.456;2023-07-13T02:07:43;20.10;53.60
70079;DHT22;57451;52.496;13.456;2023-07-13T02:10:11;20.10;54.70
70079;DHT22;57451;52.496;13.456;2023-07-13T02:12:41;20.10;54.40
70079;DHT22;57451;52.496;13.456;2023-07-13T02:15:09;20.00;54.20
70079;DHT22;57451;52.496;13.456;2023-07-13T02:17:37;20.00;53.70
70079;DHT22;57451;52.496;13.456;2023-07-13T02:20:05;20.00;54.20
70079;DHT22;57451;52.496;13.456;2023-07-13T02:22:33;19.90;54.00
70079;DHT22;57451;52.496;13.456;2023-07-13T02:25:00;19.90;54.20
70079;DHT22;57451;52.496;13.456;2023-07-13T02:27:27;19.90;54.60
70079;DHT22;57451;52.496;13.456;2023-07-13T02:29:56;19.90;55.60
70079;DHT22;57451;52.496;13.456;2023-07-13T02:32:23;19.80;54.50
70079;DHT22;57451;52.496;13.456;2023-07-13T02:34:52;19.80;54.60
70079;DHT22;57451;52.496;13.456;2023-07-13T02:37:20;19.80;55.70
70079;DHT22;57451;52.496;13.456;2023-07-13T02:39:48;19.80;55.30
70079;DHT22;57451;52.496;13.456;2023-07-13T02:42:15;19.70;54.60
70079;DHT22;57451;52.496;13.456;2023-07-13T02:44:44;19.70;54.90
70079;DHT22;57451;52.496;13.456;2023-07-13T02:47:13;19.70;56.00
70079;DHT22;57451;52.496;13.456;2023-07-13T02:49:40;19.60;55.90
70079;DHT22;57451;52.496;13.456;2023-07-13T02:52:07;19.60;56.40
70079;DHT22;57451;52.496;13.456;2023-07-13T02:54:35;19.60;56.20
70079;DHT22;57451;52.496;13.456;2023-07-13T02:57:02;19.60;56.70
70079;DHT22;57451;52.496;13.456;2023-07-13T02:59:30;19.50;56.80
70079;DHT22;57451;52.496;13.456;2023-07-13T03:01:58;19.50;56.90
70079;DHT22;57451;52.496;13.456;2023-07-13T03:04:27;19.50;55.90
70079;DHT22;57451;52.496;13.456;2023-07-13T03:06:55;19.50;57.00
70079;DHT22;57451;52.496;13.456;2023-07-13T03:09:30;19.40;55.80
70079;DHT22;57451;52.496;13.456;2023-07-13T03:11:59;19.40;56.00
70079;DHT22;57451;52.496;13.456;2023-07-13T03:14:30;19.40;55.80
70079;DHT22;57451;52.496;13.456;2023-07-13T03:16:59;19.40;56.00
70079;DHT22;57451;52.496;13.456;2023-07-13T03:19:32;19.30;55.80
70079;DHT22;57451;52.496;13.456;2023-07-13T03:22:01;19.30;56.10
70079;DHT22;57451;52.496;13.456;2023-07-13T03:24:29;19.30;57.40
70079;DHT22;57451;52.496;13.456;2023-07-13T03:26:57;19.30;56.30
70079;DHT22;57451;52.496;13.456;2023-07-13T03:29:25;19.30;57.30
70079;DHT22;57451;52.496;13.456;2023-07-13T03:31:52;19.30;56.70
70079;DHT22;57451;52.496;13.456;2023-07-13T03:34:22;19.30;57.10
70079;DHT22;57451;52.496;13.456;2023-07-13T03:36:53;19.30;57.50
70079;DHT22;57451;52.496;13.456;2023-07-13T03:39:22;19.20;57.60
70079;DHT22;57451;52.496;13.456;2023-07-13T03:41:53;19.20;56.80
70079;DHT22;57451;52.496;13.456;2023-07-13T03:44:22;19.20;57.20
70079;DHT22;57451;52.496;13.456;2023-07-13T03:46:53;19.20;57.20
70079;DHT22;57451;52.496;13.456;2023-07-13T03:49:21;19.20;56.70
70079;DHT22;57451;52.496;13.456;2023-07-13T03:51:48;19.20;56.70
70079;DHT22;57451;52.496;13.456;2023-07-13T03:54:21;19.20;57.20
70079;DHT22;57451;52.496;13.456;2023-07-13T03:56:48;19.20;57.70
70079;DHT22;57451;52.496;13.456;2023-07-13T03:59:17;19.20;57.40
70079;DHT22;57451;52.496;13.456;2023-07-13T04:01:45;19.10;57.70
70079;DHT22;57451;52.496;13.456;2023-07-13T04:04:13;19.10;57.80
70079;DHT22;57451;52.496;13.456;2023-07-13T04:06:41;19.10;57.70
70079;DHT22;57451;52.496;13.456;2023-07-13T04:09:10;19.10;57.80
70079;DHT22;57451;52.496;13.456;2023-07-13T04:11:38;19.10;58.40
70079;DHT22;57451;52.496;13.456;2023-07-13T04:14:06;19.10;58.40
70079;DHT22;57451;52.496;13.456;2023-07-13T04:16:34;19.20;58.30
70079;DHT22;57451;52.496;13.456;2023-07-13T04:19:01;19.20;58.40
70079;DHT22;57451;52.496;13.456;2023-07-13T04:21:30;19.20;58.20
70079;DHT22;57451;52.496;13.456;2023-07-13T04:23:58;19.20;58.30
70079;DHT22;57451;52.496;13.456;2023-07-13T04:26:26;19.20;58.80
70079;DHT22;57451;52.496;13.456;2023-07-13T04:28:55;19.20;58.60
70079;DHT22;57451;52.496;13.456;2023-07-13T04:31:22;19.20;58.30
70079;DHT22;57451;52.496;13.456;2023-07-13T04:33:50;19.30;58.40
70079;DHT22;57451;52.496;13.456;2023-07-13T04:36:18;19.30;57.80
70079;DHT22;57451;52.496;13.456;2023-07-13T04:38:45;19.30;57.40
70079;DHT22;57451;52.496;13.456;2023-07-13T04:41:13;19.30;58.50
70079;DHT22;57451;52.496;13.456;2023-07-13T04:43:41;19.30;57.90
70079;DHT22;57451;52.496;13.456;2023-07-13T04:46:13;19.40;58.70
70079;DHT22;57451;52.496;13.456;2023-07-13T04:48:41;19.40;58.20
70079;DHT22;57451;52.496;13.456;2023-07-13T04:51:09;19.40;59.00
70079;DHT22;57451;52.496;13.456;2023-07-13T04:53:36;19.40;58.60
70079;DHT22;57451;52.496;13.456;2023-07-13T04:56:04;19.50;58.60
70079;DHT22;57451;52.496;13.456;2023-07-13T04:58:32;19.50;58.80
70079;DHT22;57451;52.496;13.456;2023-07-13T05:01:01;19.60;58.10
70079;DHT22;57451;52.496;13.456;2023-07-13T05:03:30;19.60;58.80
70079;DHT22;57451;52.496;13.456;2023-07-13T05:06:00;19.70;58.40
70079;DHT22;57451;52.496;13.456;2023-07-13T05:08:27;19.70;58.50
70079;DHT22;57451;52.496;13.456;2023-07-13T05:10:55;19.70;58.30
70079;DHT22;57451;52.496;13.456;2023-07-13T05:13:22;19.80;57.80
70079;DHT22;57451;52.496;13.456;2023-07-13T05:15:56;19.90;58.20
70079;DHT22;57451;52.496;13.456;2023-07-13T05:18:24;19.90;57.60
70079;DHT22;57451;52.496;13.456;2023-07-13T05:20:58;19.90;57.60
70079;DHT22;57451;52.496;13.456;2023-07-13T05:23:25;20.00;57.70
70079;DHT22;57451;52.496;13.456;2023-07-13T05:25:53;20.00;58.00
70079;DHT22;57451;52.496;13.456;2023-07-13T05:28:21;20.00;57.80
70079;DHT22;57451;52.496;13.456;2023-07-13T05:30:49;20.00;57.10
70079;DHT22;57451;52.496;13.456;2023-07-13T05:33:17;20.10;57.60
70079;DHT22;57451;52.496;13.456;2023-07-13T05:35:44;20.10;57.50
70079;DHT22;57451;52.496;13.456;2023-07-13T05:38:13;20.10;57.60
70079;DHT22;57451;52.496;13.456;2023-07-13T05:40:42;20.10;57.30
70079;DHT22;57451;52.496;13.456;2023-07-13T05:43:10;20.10;57.30
70079;DHT22;57451;52.496;13.456;2023-07-13T05:45:37;20.20;57.60
70079;DHT22;57451;52.496;13.456;2023-07-13T05:48:05;20.30;57.20
70079;DHT22;57451;52.496;13.456;2023-07-13T05:50:32;20.40;57.50
70079;DHT22;57451;52.496;13.456;2023-07-13T05:52:59;20.40;57.70
70079;DHT22;57451;52.496;13.456;2023-07-13T05:55:28;20.50;57.50
70079;DHT22;57451;52.496;13.456;2023-07-13T05:57:55;20.60;57.20
70079;DHT22;57451;52.496;13.456;2023-07-13T06:00:25;20.70;56.90
70079;DHT22;57451;52.496;13.456;2023-07-13T06:02:52;20.70;56.70
70079;DHT22;57451;52.496;13.456;2023-07-13T06:05:20;20.80;57.00
70079;DHT22;57451;52.496;13.456;2023-07-13T06:07:47;20.80;56.70
70079;DHT22;57451;52.496;13.456;2023-07-13T06:10:14;20.90;56.30
70079;DHT22;57451;52.496;13.456;2023-07-13T06:12:43;21.00;56.30
70079;DHT22;57451;52.496;13.456;2023-07-13T06:15:11;21.10;56.20
70079;DHT22;57451;52.496;13.456;2023-07-13T06:17:38;21.10;56.00
70079;DHT22;57451;52.496;13.456;2023-07-13T06:20:07;21.20;55.80
70079;DHT22;57451;52.496;13.456;2023-07-13T06:22:34;21.30;55.80
70079;DHT22;57451;52.496;13.456;2023-07-13T06:25:02;21.40;55.80
70079;DHT22;57451;52.496;13.456;2023-07-13T06:27:30;21.40;56.30
70079;DHT22;57451;52.496;13.456;2023-07-13T06:29:59;21.50;55.80
70079;DHT22;57451;52.496;13.456;2023-07-13T06:32:26;21.50;55.60
70079;DHT22;57451;52.496;13.456;2023-07-13T06:34:53;21.60;54.90
70079;DHT22;57451;52.496;13.456;2023-07-13T06:37:21;21.60;55.30
70079;DHT22;57451;52.496;13.456;2023-07-13T06:39:48;21.70;54.50
70079;DHT22;57451;52.496;13.456;2023-07-13T06:42:16;21.80;54.40
70079;DHT22;57451;52.496;13.456;2023-07-13T06:44:43;21.80;54.00
70079;DHT22;57451;52.496;13.456;2023-07-13T06:47:12;21.90;54.00
70079;DHT22;57451;52.496;13.456;2023-07-13T06:49:40;22.00;54.40
70079;DHT22;57451;52.496;13.456;2023-07-13T06:52:07;22.10;54.20
70079;DHT22;57451;52.496;13.456;2023-07-13T06:54:34;22.10;54.50
70079;DHT22;57451;52.496;13.456;2023-07-13T06:57:02;22.20;53.80
70079;DHT22;57451;52.496;13.456;2023-07-13T06:59:29;22.20;54.00
70079;DHT22;57451;52.496;13.456;2023-07-13T07:01:57;22.30;53.50
70079;DHT22;57451;52.496;13.456;2023-07-13T07:04:25;22.30;53.20
70079;DHT22;57451;52.496;13.456;2023-07-13T07:06:53;22.30;53.10
70079;DHT22;57451;52.496;13.456;2023-07-13T07:09:22;22.30;53.00
70079;DHT22;57451;52.496;13.456;2023-07-13T07:11:50;22.30;51.60
70079;DHT22;57451;52.496;13.456;2023-07-13T07:14:30;22.40;52.40
70079;DHT22;57451;52.496;13.456;2023-07-13T07:16:58;22.50;53.20
70079;DHT22;57451;52.496;13.456;2023-07-13T07:19:29;22.60;52.20
70079;DHT22;57451;52.496;13.456;2023-07-13T07:21:56;22.60;52.20
70079;DHT22;57451;52.496;13.456;2023-07-13T07:24:24;22.60;51.30
70079;DHT22;57451;52.496;13.456;2023-07-13T07:26:51;22.70;51.10
70079;DHT22;57451;52.496;13.456;2023-07-13T07:29:21;22.70;50.60
70079;DHT22;57451;52.496;13.456;2023-07-13T07:31:52;22.80;50.90
70079;DHT22;57451;52.496;13.456;2023-07-13T07:34:23;22.90;51.10
70079;DHT22;57451;52.496;13.456;2023-07-13T07:36:53;22.90;50.00
70079;DHT22;57451;52.496;13.456;2023-07-13T07:39:23;22.90;49.90
70079;DHT22;57451;52.496;13.456;2023-07-13T07:41:51;23.00;50.70
70079;DHT22;57451;52.496;13.456;2023-07-13T07:44:22;23.10;50.30
70079;DHT22;57451;52.496;13.456;2023-07-13T07:46:49;23.20;51.40
70079;DHT22;57451;52.496;13.456;2023-07-13T07:49:17;23.20;50.20
70079;DHT22;57451;52.496;13.456;2023-07-13T07:51:44;23.30;50.10
70079;DHT22;57451;52.496;13.456;2023-07-13T07:54:13;23.30;48.70
70079;DHT22;57451;52.496;13.456;2023-07-13T07:56:54;23.40;48.40
70079;DHT22;57451;52.496;13.456;2023-07-13T07:59:24;23.40;49.80
70079;DHT22;57451;52.496;13.456;2023-07-13T08:01:54;23.50;49.60
70079;DHT22;57451;52.496;13.456;2023-07-13T08:04:25;23.60;50.00
70079;DHT22;57451;52.496;13.456;2023-07-13T08:06:55;23.60;49.30
70079;DHT22;57451;52.496;13.456;2023-07-13T08:09:27;23.70;49.20
70079;DHT22;57451;52.496;13.456;2023-07-13T08:11:54;23.70;48.60
70079;DHT22;57451;52.496;13.456;2023-07-13T08:14:25;23.70;48.20
70079;DHT22;57451;52.496;13.456;2023-07-13T08:17:05;23.70;48.80
70079;DHT22;57451;52.496;13.456;2023-07-13T08:19:32;23.70;49.30
70079;DHT22;57451;52.496;13.456;2023-07-13T08:22:00;23.70;48.90
70079;DHT22;57451;52.496;13.456;2023-07-13T08:24:29;23.70;48.70
70079;DHT22;57451;52.496;13.456;2023-07-13T08:26:56;23.70;49.10
70079;DHT22;57451;52.496;13.456;2023-07-13T08:29:24;23.80;48.70
70079;DHT22;57451;52.496;13.456;2023-07-13T08:31:51;23.90;49.20
70079;DHT22;57451;52.496;13.456;2023-07-13T08:34:18;23.90;48.50
70079;DHT22;57451;52.496;13.456;2023-07-13T08:36:46;24.00;48.50
70079;DHT22;57451;52.496;13.456;2023-07-13T08:39:13;24.00;47.70
70079;DHT22;57451;52.496;13.456;2023-07-13T08:41:45;24.00;47.60
70079;DHT22;57451;52.496;13.456;2023-07-13T08:44:20;24.00;48.00
70079;DHT22;57451;52.496;13.456;2023-07-13T08:46:54;24.00;46.90
70079;DHT22;57451;52.496;13.456;2023-07-13T08:49:23;24.10;47.30
70079;DHT22;57451;52.496;13.456;2023-07-13T08:51:55;24.10;47.70
70079;DHT22;57451;52.496;13.456;2023-07-13T08:54:29;24.20;47.60
70079;DHT22;57451;52.496;13.456;2023-07-13T08:57:02;24.20;47.90
70079;DHT22;57451;52.496;13.456;2023-07-13T08:59:33;24.30;48.00
70079;DHT22;57451;52.496;13.456;2023-07-13T09:02:16;24.30;47.70
70079;DHT22;57451;52.496;13.456;2023-07-13T09:04:48;24.30;48.00
70079;DHT22;57451;52.496;13.456;2023-07-13T09:07:26;24.30;47.40
70079;DHT22;57451;52.496;13.456;2023-07-13T09:10:07;24.30;47.30
70079;DHT22;57451;52.496;13.456;2023-07-13T09:12:46;24.30;49.10
70079;DHT22;57451;52.496;13.456;2023-07-13T09:15:24;24.30;47.50
70079;DHT22;57451;52.496;13.456;2023-07-13T09:17:55;24.40;46.70
70079;DHT22;57451;52.496;13.456;2023-07-13T09:20:29;24.40;47.60
70079;DHT22;57451;52.496;13.456;2023-07-13T09:22:59;24.30;45.50
70079;DHT22;57451;52.496;13.456;2023-07-13T09:25:32;24.30;47.10
70079;DHT22;57451;52.496;13.456;2023-07-13T09:28:09;24.40;44.60
70079;DHT22;57451;52.496;13.456;2023-07-13T09:30:43;24.40;45.20
70079;DHT22;57451;52.496;13.456;2023-07-13T09:33:12;24.40;44.40
70079;DHT22;57451;52.496;13.456;2023-07-13T09:35:41;24.50;44.50
70079;DHT22;57451;52.496;13.456;2023-07-13T09:38:13;24.50;45.30
70079;DHT22;57451;52.496;13.456;2023-07-13T09:40:48;24.60;44.90
70079;DHT22;57451;52.496;13.456;2023-07-13T09:43:19;24.70;44.40
70079;DHT22;57451;52.496;13.456;2023-07-13T09:45:48;24.80;44.80
70079;DHT22;57451;52.496;13.456;2023-07-13T09:48:17;24.90;44.80
70079;DHT22;57451;52.496;13.456;2023-07-13T09:50:45;24.90;44.70
70079;DHT22;57451;52.496;13.456;2023-07-13T09:53:15;25.00;42.90
70079;DHT22;57451;52.496;13.456;2023-07-13T09:55:47;25.00;44.50
70079;DHT22;57451;52.496;13.456;2023-07-13T09:58:25;25.10;44.10
70079;DHT22;57451;52.496;13.456;2023-07-13T10:00:56;25.20;41.90
70079;DHT22;57451;52.496;13.456;2023-07-13T10:03:26;25.10;41.70
70079;DHT22;57451;52.496;13.456;2023-07-13T10:05:54;25.10;42.30
70079;DHT22;57451;52.496;13.456;2023-07-13T10:08:24;25.10;42.00
70079;DHT22;57451;52.496;13.456;2023-07-13T10:10:54;25.10;42.40
70079;DHT22;57451;52.496;13.456;2023-07-13T10:13:32;25.10;41.70
70079;DHT22;57451;52.496;13.456;2023-07-13T10:16:00;25.10;42.70
70079;DHT22;57451;52.496;13.456;2023-07-13T10:18:28;25.10;41.90
70079;DHT22;57451;52.496;13.456;2023-07-13T10:21:09;25.10;43.10
70079;DHT22;57451;52.496;13.456;2023-07-13T10:24:03;25.10;43.00
70079;DHT22;57451;52.496;13.456;2023-07-13T10:26:33;25.20;42.20
70079;DHT22;57451;52.496;13.456;2023-07-13T10:29:09;25.20;41.90
70079;DHT22;57451;52.496;13.456;2023-07-13T10:31:40;25.20;43.10
70079;DHT22;57451;52.496;13.456;2023-07-13T10:34:10;25.20;42.30
70079;DHT22;57451;52.496;13.456;2023-07-13T10:36:40;25.20;42.80
70079;DHT22;57451;52.496;13.456;2023-07-13T10:39:14;25.30;42.50
70079;DHT22;57451;52.496;13.456;2023-07-13T10:41:44;25.30;42.30
70079;DHT22;57451;52.496;13.456;2023-07-13T10:44:21;25.40;42.10
70079;DHT22;57451;52.496;13.456;2023-07-13T10:46:49;25.40;41.30
70079;DHT22;57451;52.496;13.456;2023-07-13T10:49:18;25.30;40.70
70079;DHT22;57451;52.496;13.456;2023-07-13T10:51:46;25.30;41.30
70079;DHT22;57451;52.496;13.456;2023-07-13T10:54:18;25.30;40.60
70079;DHT22;57451;52.496;13.456;2023-07-13T10:56:50;25.20;41.50
70079;DHT22;57451;52.496;13.456;2023-07-13T10:59:24;25.20;39.90
70079;DHT22;57451;52.496;13.456;2023-07-13T11:01:58;25.10;40.60
70079;DHT22;57451;52.496;13.456;2023-07-13T11:04:40;25.10;41.30
70079;DHT22;57451;52.496;13.456;2023-07-13T11:07:20;25.20;41.30
70079;DHT22;57451;52.496;13.456;2023-07-13T11:09:52;25.40;41.50
70079;DHT22;57451;52.496;13.456;2023-07-13T11:12:49;25.40;41.30
70079;DHT22;57451;52.496;13.456;2023-07-13T11:15:31;25.50;41.20
70079;DHT22;57451;52.496;13.456;2023-07-13T11:18:03;25.60;40.70
70079;DHT22;57451;52.496;13.456;2023-07-13T11:20:38;25.70;40.90
70079;DHT22;57451;52.496;13.456;2023-07-13T11:23:15;25.70;40.40
70079;DHT22;57451;52.496;13.456;2023-07-13T11:25:45;25.90;40.70
70079;DHT22;57451;52.496;13.456;2023-07-13T11:28:17;26.00;41.10
70079;DHT22;57451;52.496;13.456;2023-07-13T11:30:53;26.10;39.70
70079;DHT22;57451;52.496;13.456;2023-07-13T11:33:30;26.10;38.80
70079;DHT22;57451;52.496;13.456;2023-07-13T11:36:13;26.20;38.40
70079;DHT22;57451;52.496;13.456;2023-07-13T11:38:42;26.20;39.00
70079;DHT22;57451;52.496;13.456;2023-07-13T11:41:16;26.20;39.50
70079;DHT22;57451;52.496;13.456;2023-07-13T11:43:44;26.30;38.20
70079;DHT22;57451;52.496;13.456;2023-07-13T11:46:15;26.20;36.90
70079;DHT22;57451;52.496;13.456;2023-07-13T11:48:45;26.30;39.40
70079;DHT22;57451;52.496;13.456;2023-07-13T11:51:19;26.30;39.60
70079;DHT22;57451;52.496;13.456;2023-07-13T11:53:49;26.50;39.10
70079;DHT22;57451;52.496;13.456;2023-07-13T11:56:17;26.50;39.90
70079;DHT22;57451;52.496;13.456;2023-07-13T11:58:48;26.60;40.10
70079;DHT22;57451;52.496;13.456;2023-07-13T12:01:21;26.80;39.70
70079;DHT22;57451;52.496;13.456;2023-07-13T12:03:49;26.80;39.90
70079;DHT22;57451;52.496;13.456;2023-07-13T12:06:25;26.80;38.90
70079;DHT22;57451;52.496;13.456;2023-07-13T12:08:59;26.90;38.70
70079;DHT22;57451;52.496;13.456;2023-07-13T12:11:27;27.00;38.10
70079;DHT22;57451;52.496;13.456;2023-07-13T12:13:54;27.10;38.80
70079;DHT22;57451;52.496;13.456;2023-07-13T12:16:28;27.20;38.30
70079;DHT22;57451;52.496;13.456;2023-07-13T12:18:56;27.30;38.10
70079;DHT22;57451;52.496;13.456;2023-07-13T12:21:30;27.40;38.90
70079;DHT22;57451;52.496;13.456;2023-07-13T12:23:58;27.40;38.30
70079;DHT22;57451;52.496;13.456;2023-07-13T12:26:26;27.50;37.90
70079;DHT22;57451;52.496;13.456;2023-07-13T12:28:55;27.50;37.00
70079;DHT22;57451;52.496;13.456;2023-07-13T12:31:32;27.50;37.70
70079;DHT22;57451;52.496;13.456;2023-07-13T12:34:02;27.60;37.70
70079;DHT22;57451;52.496;13.456;2023-07-13T12:36:35;27.60;38.50
70079;DHT22;57451;52.496;13.456;2023-07-13T12:39:12;27.50;37.60
70079;DHT22;57451;52.496;13.456;2023-07-13T12:41:45;27.60;38.10
70079;DHT22;57451;52.496;13.456;2023-07-13T12:44:25;27.70;37.90
70079;DHT22;57451;52.496;13.456;2023-07-13T12:47:09;27.70;37.60
70079;DHT22;57451;52.496;13.456;2023-07-13T12:49:43;27.80;37.60
70079;DHT22;57451;52.496;13.456;2023-07-13T12:52:21;27.90;37.50
70079;DHT22;57451;52.496;13.456;2023-07-13T12:54:55;27.90;37.90
70079;DHT22;57451;52.496;13.456;2023-07-13T12:57:39;28.10;38.70
70079;DHT22;57451;52.496;13.456;2023-07-13T13:00:22;28.10;36.90
70079;DHT22;57451;52.496;13.456;2023-07-13T13:02:55;28.10;36.10
70079;DHT22;57451;52.496;13.456;2023-07-13T13:05:43;27.90;37.20
70079;DHT22;57451;52.496;13.456;2023-07-13T13:08:12;28.00;37.00
70079;DHT22;57451;52.496;13.456;2023-07-13T13:10:40;28.00;37.00
70079;DHT22;57451;52.496;13.456;2023-07-13T13:13:07;28.00;37.20
70079;DHT22;57451;52.496;13.456;2023-07-13T13:15:35;28.00;36.30
70079;DHT22;57451;52.496;13.456;2023-07-13T13:18:14;28.00;36.20
70079;DHT22;57451;52.496;13.456;2023-07-13T13:20:42;28.00;36.30
70079;DHT22;57451;52.496;13.456;2023-07-13T13:23:12;27.80;36.30
70079;DHT22;57451;52.496;13.456;2023-07-13T13:25:42;27.90;36.70
70079;DHT22;57451;52.496;13.456;2023-07-13T13:28:14;27.90;36.00
70079;DHT22;57451;52.496;13.456;2023-07-13T13:30:42;27.80;37.10
70079;DHT22;57451;52.496;13.456;2023-07-13T13:33:13;27.90;38.00
70079;DHT22;57451;52.496;13.456;2023-07-13T13:35:41;27.90;37.20
70079;DHT22;57451;52.496;13.456;2023-07-13T13:38:11;28.00;37.00
70079;DHT22;57451;52.496;13.456;2023-07-13T13:40:41;28.00;36.70
70079;DHT22;57451;52.496;13.456;2023-07-13T13:43:16;27.90;36.50
70079;DHT22;57451;52.496;13.456;2023-07-13T13:45:45;27.80;36.20
70079;DHT22;57451;52.496;13.456;2023-07-13T13:48:17;27.70;35.90
70079;DHT22;57451;52.496;13.456;2023-07-13T13:50:46;27.50;37.00
70079;DHT22;57451;52.496;13.456;2023-07-13T13:53:14;27.60;37.60
70079;DHT22;57451;52.496;13.456;2023-07-13T13:55:42;27.70;36.40
70079;DHT22;57451;52.496;13.456;2023-07-13T13:58:38;27.70;36.30
70079;DHT22;57451;52.496;13.456;2023-07-13T14:01:12;27.70;36.80
70079;DHT22;57451;52.496;13.456;2023-07-13T14:03:41;27.80;37.20
70079;DHT22;57451;52.496;13.456;2023-07-13T14:06:11;27.90;37.20
70079;DHT22;57451;52.496;13.456;2023-07-13T14:08:40;27.80;37.40
70079;DHT22;57451;52.496;13.456;2023-07-13T14:11:10;27.80;36.20
70079;DHT22;57451;52.496;13.456;2023-07-13T14:13:42;27.80;35.80
70079;DHT22;57451;52.496;13.456;2023-07-13T14:16:12;27.80;36.50
70079;DHT22;57451;52.496;13.456;2023-07-13T14:18:42;27.70;36.50
70079;DHT22;57451;52.496;13.456;2023-07-13T14:21:12;27.80;37.80
70079;DHT22;57451;52.496;13.456;2023-07-13T14:23:40;27.90;36.70
70079;DHT22;57451;52.496;13.456;2023-07-13T14:26:11;27.90;36.10
70079;DHT22;57451;52.496;13.456;2023-07-13T14:28:43;27.90;35.70
70079;DHT22;57451;52.496;13.456;2023-07-13T14:31:12;27.90;36.20
70079;DHT22;57451;52.496;13.456;2023-07-13T14:33:44;27.90;36.00
70079;DHT22;57451;52.496;13.456;2023-07-13T14:36:25;27.90;37.10
70079;DHT22;57451;52.496;13.456;2023-07-13T14:39:00;27.90;36.90
70079;DHT22;57451;52.496;13.456;2023-07-13T14:41:28;27.90;36.80
70079;DHT22;57451;52.496;13.456;2023-07-13T14:43:55;27.80;37.00
70079;DHT22;57451;52.496;13.456;2023-07-13T14:46:29;27.80;37.20
70079;DHT22;57451;52.496;13.456;2023-07-13T14:49:02;27.80;36.50
70079;DHT22;57451;52.496;13.456;2023-07-13T14:51:36;27.70;36.30
70079;DHT22;57451;52.496;13.456;2023-07-13T14:54:05;27.70;37.00
70079;DHT22;57451;52.496;13.456;2023-07-13T14:56:33;27.70;36.40
70079;DHT22;57451;52.496;13.456;2023-07-13T14:59:01;27.60;37.30
70079;DHT22;57451;52.496;13.456;2023-07-13T15:01:29;27.70;37.60
70079;DHT22;57451;52.496;13.456;2023-07-13T15:03:59;27.70;37.80
70079;DHT22;57451;52.496;13.456;2023-07-13T15:06:30;27.80;37.60
70079;DHT22;57451;52.496;13.456;2023-07-13T15:09:23;27.80;37.00
70079;DHT22;57451;52.496;13.456;2023-07-13T15:11:53;27.80;36.70
70079;DHT22;57451;52.496;13.456;2023-07-13T15:14:34;27.80;36.70
70079;DHT22;57451;52.496;13.456;2023-07-13T15:17:21;27.80;36.80
70079;DHT22;57451;52.496;13.456;2023-07-13T15:19:52;27.80;37.20
70079;DHT22;57451;52.496;13.456;2023-07-13T15:22:20;27.80;37.30
70079;DHT22;57451;52.496;13.456;2023-07-13T15:24:49;27.80;36.50
70079;DHT22;57451;52.496;13.456;2023-07-13T15:27:16;27.70;35.70
70079;DHT22;57451;52.496;13.456;2023-07-13T15:29:44;27.60;36.20
70079;DHT22;57451;52.496;13.456;2023-07-13T15:32:13;27.60;36.30
70079;DHT22;57451;52.496;13.456;2023-07-13T15:34:41;27.70;36.90
70079;DHT22;57451;52.496;13.456;2023-07-13T15:37:14;27.70;36.50